Time;durP1;ratioP1;P1;durP2;ratioP2;P2;SDS_P1;SDS_P2;PMS_P1;PMS_P2;Temp;Humidity;BMP_temperature;BMP_pressure;BME280_temperature;BME280_humidity;BME280_pressure;Samples;Min_cycle;Max_cycle;Signal;HPM_P1;HPM_P2
2023/12/15 00:00:19;;;;;;;;;;;;;;;6.25;70.82;101001.22;1088170;54;959;-79
2023/12/15 00:01:20;;;;;;;;;;;;;;;6.27;70.71;101012.63;1087996;54;938;-80
2023/12/15 00:02:23;;;;;;;;;;;;;;;6.18;71.06;101014.06;1087899;47;958;-79
2023/12/15 00:03:24;;;;;;;;;;;;;;;6.21;70.91;101011.19;1088070;54;989;-78
2023/12/15 00:04:27;;;;;;;;;;;;;;;6.21;71.24;101007.69;1087896;47;947;-79
2023/12/15 00:05:29;;;;;;;;;;;;;;;6.20;71.27;101017.44;1088015;47;980;-79
2023/12/15 00:06:32;;;;;;;;;;;;;;;6.11;71.43;101014.50;1087966;54;1345;-79
2023/12/15 00:07:36;;;;;;;;;;;;;;;6.16;71.48;101023.03;1087998;54;1029;-80
2023/12/15 00:08:41;;;;;;;;;;;;;;;6.20;71.47;101016.59;1087816;47;1100;-79
2023/12/15 00:09:41;;;;;;;;;;;;;;;6.04;71.53;101022.84;1087993;54;989;-80
2023/12/15 00:10:45;;;;;;;;;;;;;;;6.04;71.53;101022.84;1087872;47;1075;-79
2023/12/15 00:11:45;;;;;;;;;;;;;;;6.06;71.90;101023.59;1087888;47;1166;-79
2023/12/15 00:12:49;;;;;;;;;;;;;;;6.08;71.56;101028.81;1088115;54;992;-79
2023/12/15 00:13:52;;;;;;;;;;;;;;;6.16;71.48;101033.66;1088002;47;933;-79
2023/12/15 00:14:56;;;;;;;;;;;;;;;6.19;71.29;101036.13;1088130;54;1012;-81
2023/12/15 00:15:59;;;;;;;;;;;;;;;6.26;71.16;101031.31;1088508;54;1005;-79
2023/12/15 00:17:05;;;;;;;;;;;;;;;6.24;71.25;101034.03;1088494;46;1417;-82
2023/12/15 00:18:07;;;;;;;;;;;;;;;6.11;71.51;101039.25;1088295;47;1866;-79
2023/12/15 00:19:16;;;;;;;;;;;;;;;6.23;71.21;101033.22;1088488;54;886;-79
2023/12/15 00:20:16;;;;;;;;;;;;;;;6.23;71.19;101037.69;1088412;47;966;-81
2023/12/15 00:21:21;;;;;;;;;;;;;;;6.30;71.06;101038.13;1088491;54;880;-79
2023/12/15 00:22:21;;;;;;;;;;;;;;;6.23;71.40;101043.81;1088392;47;898;-80
2023/12/15 00:23:33;;;;;;;;;;;;;;;6.24;71.33;101040.22;1088320;54;1024;-80
2023/12/15 00:24:38;;;;;;;;;;;;;;;6.18;71.53;101039.75;1088505;54;1007;-80
2023/12/15 00:25:42;;;;;;;;;;;;;;;6.17;71.63;101044.22;1088522;54;959;-79
2023/12/15 00:26:42;;;;;;;;;;;;;;;6.28;71.36;101045.38;1088422;54;1338;-80
2023/12/15 00:27:43;;;;;;;;;;;;;;;6.24;71.44;101044.66;1088451;54;1000;-79
2023/12/15 00:28:46;;;;;;;;;;;;;;;6.17;71.79;101043.34;1088483;47;853;-80
2023/12/15 00:29:49;;;;;;;;;;;;;;;6.22;71.78;101046.59;1088505;54;1025;-84
2023/12/15 00:30:53;;;;;;;;;;;;;;;6.39;71.37;101051.72;1088535;54;886;-80
2023/12/15 00:31:53;;;;;;;;;;;;;;;6.31;71.55;101048.69;1088519;54;886;-79
2023/12/15 00:32:57;;;;;;;;;;;;;;;6.18;72.00;101050.34;1088466;54;1020;-79
2023/12/15 00:33:58;;;;;;;;;;;;;;;6.16;71.97;101057.56;1088433;54;917;-79
2023/12/15 00:35:02;;;;;;;;;;;;;;;6.10;72.40;101050.81;1088701;46;983;-79
2023/12/15 00:36:03;;;;;;;;;;;;;;;6.07;72.56;101057.16;1088498;46;1011;-79
2023/12/15 00:37:04;;;;;;;;;;;;;;;6.11;72.64;101055.16;1088281;46;1390;-78
2023/12/15 00:38:07;;;;;;;;;;;;;;;6.01;72.49;101048.69;1088277;47;1854;-79
2023/12/15 00:39:08;;;;;;;;;;;;;;;6.17;72.30;101060.13;1088356;47;898;-79
2023/12/15 00:40:12;;;;;;;;;;;;;;;6.22;71.93;101060.69;1088432;54;1014;-79
2023/12/15 00:41:13;;;;;;;;;;;;;;;6.19;71.78;101063.53;1088492;46;917;-79
2023/12/15 00:42:16;;;;;;;;;;;;;;;6.27;71.77;101062.25;1088425;54;1030;-79
2023/12/15 00:43:18;;;;;;;;;;;;;;;6.27;71.89;101070.22;1088425;54;932;-79
2023/12/15 00:44:19;;;;;;;;;;;;;;;6.35;71.79;101073.25;1088509;54;986;-80
2023/12/15 00:45:25;;;;;;;;;;;;;;;6.31;71.52;101067.28;1088487;47;988;-78
2023/12/15 00:46:28;;;;;;;;;;;;;;;6.34;71.73;101071.53;1088574;54;1052;-81
2023/12/15 00:47:31;;;;;;;;;;;;;;;6.36;71.56;101072.31;1088432;47;1379;-80
2023/12/15 00:48:34;;;;;;;;;;;;;;;6.45;71.66;101076.19;1088561;54;1040;-80
2023/12/15 00:49:38;;;;;;;;;;;;;;;6.52;71.16;101082.84;1088653;46;985;-80
2023/12/15 00:50:41;;;;;;;;;;;;;;;6.39;71.75;101078.28;1088570;54;1022;-80
2023/12/15 00:51:44;;;;;;;;;;;;;;;6.33;72.00;101075.97;1088574;47;936;-81
2023/12/15 00:52:45;;;;;;;;;;;;;;;6.35;71.66;101082.06;1088086;47;1162;-80
2023/12/15 00:53:48;;;;;;;;;;;;;;;6.29;71.96;101079.78;1088078;54;951;-78
2023/12/15 00:54:50;;;;;;;;;;;;;;;6.32;71.79;101090.25;1087992;47;985;-80
2023/12/15 00:55:53;;;;;;;;;;;;;;;6.22;72.40;101086.41;1088175;46;993;-80
2023/12/15 00:56:53;;;;;;;;;;;;;;;6.23;72.38;101091.63;1088038;47;1297;-78
2023/12/15 00:57:57;;;;;;;;;;;;;;;6.17;72.83;101091.13;1088082;54;1872;-77
2023/12/15 00:58:59;;;;;;;;;;;;;;;6.15;72.79;101088.56;1088180;47;868;-79
2023/12/15 01:00:03;;;;;;;;;;;;;;;6.19;72.40;101099.88;1088040;47;924;-78
2023/12/15 01:01:06;;;;;;;;;;;;;;;6.16;72.94;101094.72;1088200;46;1053;-79
2023/12/15 01:02:09;;;;;;;;;;;;;;;6.09;73.22;101099.56;1088114;47;1046;-79
2023/12/15 01:03:10;;;;;;;;;;;;;;;6.16;73.27;101113.31;1088173;46;1036;-79
2023/12/15 01:04:14;;;;;;;;;;;;;;;6.17;72.95;101107.06;1088142;54;939;-80
2023/12/15 01:05:15;;;;;;;;;;;;;;;6.20;72.97;101110.38;1088452;46;983;-80
2023/12/15 01:06:19;;;;;;;;;;;;;;;6.19;72.93;101107.84;1088287;47;901;-80
2023/12/15 01:07:19;;;;;;;;;;;;;;;6.18;73.01;101106.13;1088193;54;1330;-80
2023/12/15 01:08:23;;;;;;;;;;;;;;;6.22;73.14;101105.84;1088191;47;945;-79
2023/12/15 01:09:23;;;;;;;;;;;;;;;6.24;73.11;101109.28;1087501;47;1081;-79
2023/12/15 01:10:26;;;;;;;;;;;;;;;6.12;73.48;101112.63;1088201;54;985;-80
2023/12/15 01:11:27;;;;;;;;;;;;;;;6.22;73.49;101118.28;1088204;47;983;-79
2023/12/15 01:12:30;;;;;;;;;;;;;;;6.20;73.47;101120.16;1088282;47;991;-80
2023/12/15 01:13:31;;;;;;;;;;;;;;;6.14;73.45;101120.53;1088343;54;1023;-80
2023/12/15 01:14:35;;;;;;;;;;;;;;;6.02;73.62;101119.44;1088275;54;1132;-79
2023/12/15 01:15:35;;;;;;;;;;;;;;;6.12;73.65;101119.75;1088268;46;974;-79
2023/12/15 01:16:48;;;;;;;;;;;;;;;6.21;73.20;101129.84;1088261;46;1249;-80
2023/12/15 01:17:49;;;;;;;;;;;;;;;6.07;73.68;101122.69;1088286;46;1007;-79
2023/12/15 01:18:49;;;;;;;;;;;;;;;6.17;73.27;101128.31;1088282;47;1062;-80
2023/12/15 01:19:53;;;;;;;;;;;;;;;6.13;73.50;101124.97;1088357;46;943;-79
2023/12/15 01:20:53;;;;;;;;;;;;;;;6.04;73.88;101131.69;1088252;54;1049;-79
2023/12/15 01:21:56;;;;;;;;;;;;;;;6.04;73.85;101128.16;1088107;47;995;-79
2023/12/15 01:22:57;;;;;;;;;;;;;;;6.12;73.78;101133.03;1088159;54;1006;-82
2023/12/15 01:24:00;;;;;;;;;;;;;;;6.08;73.62;101133.22;1088274;46;943;-79
2023/12/15 01:25:02;;;;;;;;;;;;;;;6.29;72.98;101137.34;1088231;54;972;-79
2023/12/15 01:26:05;;;;;;;;;;;;;;;6.31;72.99;101138.13;1088140;54;964;-79
2023/12/15 01:27:06;;;;;;;;;;;;;;;6.29;72.97;101132.91;1088029;54;1390;-79
2023/12/15 01:28:09;;;;;;;;;;;;;;;6.30;73.26;101129.31;1087993;47;972;-79
2023/12/15 01:29:09;;;;;;;;;;;;;;;6.29;73.07;101140.88;1088160;54;954;-78
2023/12/15 01:30:13;;;;;;;;;;;;;;;6.29;73.41;101134.69;1088075;47;1067;-79
2023/12/15 01:31:14;;;;;;;;;;;;;;;6.10;73.48;101138.41;1088144;54;1191;-80
2023/12/15 01:32:19;;;;;;;;;;;;;;;6.20;73.33;101147.56;1088193;54;1041;-79
2023/12/15 01:33:20;;;;;;;;;;;;;;;6.13;73.76;101143.56;1088108;46;985;-79
2023/12/15 01:34:24;;;;;;;;;;;;;;;6.11;73.77;101145.44;1088160;54;979;-79
2023/12/15 01:35:25;;;;;;;;;;;;;;;6.18;73.55;101151.25;1088113;47;985;-78
2023/12/15 01:36:28;;;;;;;;;;;;;;;6.32;72.96;101151.31;1088181;54;1032;-79
2023/12/15 01:37:29;;;;;;;;;;;;;;;6.41;73.09;101155.22;1088074;54;1109;-79
2023/12/15 01:38:32;;;;;;;;;;;;;;;6.49;72.76;101157.44;1088228;46;1878;-78
2023/12/15 01:39:33;;;;;;;;;;;;;;;6.51;72.81;101155.53;1088065;54;876;-79
2023/12/15 01:40:36;;;;;;;;;;;;;;;6.60;72.53;101156.78;1088230;46;1087;-80
2023/12/15 01:41:36;;;;;;;;;;;;;;;6.58;72.81;101158.66;1088188;54;1034;-80
2023/12/15 01:42:42;;;;;;;;;;;;;;;6.60;72.73;101160.31;1088336;54;931;-80
2023/12/15 01:43:42;;;;;;;;;;;;;;;6.73;72.11;101155.09;1088366;54;1013;-81
2023/12/15 01:44:46;;;;;;;;;;;;;;;6.74;72.14;101158.59;1088391;54;1060;-81
2023/12/15 01:45:47;;;;;;;;;;;;;;;6.64;72.22;101163.63;1088463;54;960;-81
2023/12/15 01:46:50;;;;;;;;;;;;;;;6.52;72.39;101165.19;1088191;54;1367;-81
2023/12/15 01:47:54;;;;;;;;;;;;;;;6.58;72.31;101170.16;1088248;47;922;-82
2023/12/15 01:48:57;;;;;;;;;;;;;;;6.42;72.95;101169.38;1088338;54;982;-79
2023/12/15 01:49:58;;;;;;;;;;;;;;;6.49;72.64;101168.91;1088332;54;1021;-80
2023/12/15 01:51:01;;;;;;;;;;;;;;;6.57;72.31;101168.44;1088368;54;975;-80
2023/12/15 01:52:04;;;;;;;;;;;;;;;6.64;72.27;101169.78;1088319;47;964;-80
2023/12/15 01:53:08;;;;;;;;;;;;;;;6.64;72.07;101177.75;1088375;46;942;-79
2023/12/15 01:54:09;;;;;;;;;;;;;;;6.67;71.96;101174.06;1088266;47;977;-78
2023/12/15 01:55:13;;;;;;;;;;;;;;;6.65;72.17;101171.50;1088204;47;944;-78
2023/12/15 01:56:14;;;;;;;;;;;;;;;6.66;72.30;101172.38;1088306;54;987;-80
2023/12/15 01:57:17;;;;;;;;;;;;;;;6.65;72.11;101179.47;1088221;47;1237;-79
2023/12/15 01:58:18;;;;;;;;;;;;;;;6.76;72.04;101170.84;1088136;46;1848;-79
2023/12/15 01:59:21;;;;;;;;;;;;;;;6.77;72.28;101174.38;1088289;47;930;-79
2023/12/15 02:00:22;;;;;;;;;;;;;;;6.84;71.88;101165.94;1088308;54;992;-79
2023/12/15 02:01:25;;;;;;;;;;;;;;;6.78;72.25;101168.13;1088263;47;930;-78
2023/12/15 02:02:26;;;;;;;;;;;;;;;6.82;71.94;101170.50;1088253;54;933;-80
2023/12/15 02:03:32;;;;;;;;;;;;;;;6.85;71.80;101164.97;1088354;54;946;-78
2023/12/15 02:04:33;;;;;;;;;;;;;;;6.84;71.74;101171.25;1088402;54;1134;-79
2023/12/15 02:05:36;;;;;;;;;;;;;;;6.80;71.82;101168.88;1088214;54;923;-79
2023/12/15 02:06:37;;;;;;;;;;;;;;;6.79;71.92;101167.16;1087968;47;1350;-77
2023/12/15 02:07:40;;;;;;;;;;;;;;;6.79;72.05;101167.16;1088126;47;1042;-80
2023/12/15 02:08:43;;;;;;;;;;;;;;;6.75;72.39;101163.84;1088369;54;1000;-80
2023/12/15 02:09:44;;;;;;;;;;;;;;;6.75;72.11;101177.13;1088379;46;1092;-80
2023/12/15 02:10:47;;;;;;;;;;;;;;;6.73;72.32;101165.75;1088519;54;1020;-80
2023/12/15 02:11:48;;;;;;;;;;;;;;;6.79;72.22;101172.50;1088555;54;903;-80
2023/12/15 02:12:56;;;;;;;;;;;;;;;6.75;72.61;101182.47;1088681;54;1022;-82
2023/12/15 02:14:11;;;;;;;;;;;;;;;6.85;72.14;101172.09;1088627;54;1004;-82
2023/12/15 02:15:14;;;;;;;;;;;;;;;6.91;71.84;101177.03;1088542;54;961;-82
2023/12/15 02:16:15;;;;;;;;;;;;;;;6.87;72.04;101172.88;1088588;47;1011;-81
2023/12/15 02:17:16;;;;;;;;;;;;;;;6.90;71.97;101177.97;1088670;54;1388;-81
2023/12/15 02:18:20;;;;;;;;;;;;;;;6.89;72.12;101181.63;1088665;54;1848;-81
2023/12/15 02:31:06;;;;;;;;;;;;;;;6.84;72.16;101202.28;1088234;54;1157;-81
2023/12/15 02:32:11;;;;;;;;;;;;;;;6.93;72.07;101199.06;1088816;54;1009;-82
2023/12/15 02:33:14;;;;;;;;;;;;;;;7.01;71.85;101203.94;1088872;54;884;-82
2023/12/15 02:34:15;;;;;;;;;;;;;;;7.06;71.83;101196.53;1088565;47;978;-81
2023/12/15 02:35:19;;;;;;;;;;;;;;;7.08;71.85;101199.94;1088600;54;1064;-81
2023/12/15 02:36:20;;;;;;;;;;;;;;;6.97;72.09;101205.94;1088521;54;933;-80
2023/12/15 02:37:21;;;;;;;;;;;;;;;7.03;71.61;101194.91;1088130;47;1383;-80
2023/12/15 02:38:24;;;;;;;;;;;;;;;7.01;72.07;101199.47;1088078;47;1876;-79
2023/12/15 02:39:27;;;;;;;;;;;;;;;6.84;72.48;101196.97;1088257;54;1136;-81
2023/12/15 02:40:39;;;;;;;;;;;;;;;6.74;72.74;101196.69;1088101;54;1081;-80
2023/12/15 02:41:40;;;;;;;;;;;;;;;6.56;72.74;101199.47;1088290;47;963;-82
2023/12/15 02:42:44;;;;;;;;;;;;;;;6.51;72.82;101196.25;1088391;54;1074;-81
2023/12/15 02:43:45;;;;;;;;;;;;;;;6.47;73.01;101204.47;1088196;47;1023;-81
2023/12/15 02:44:49;;;;;;;;;;;;;;;6.39;73.13;101202.25;1088216;54;1137;-79
2023/12/15 02:45:49;;;;;;;;;;;;;;;6.38;73.27;101196.09;1088356;54;1082;-80
2023/12/15 02:46:53;;;;;;;;;;;;;;;6.34;73.35;101202.53;1088098;54;1319;-79
2023/12/15 02:47:56;;;;;;;;;;;;;;;6.43;73.24;101202.94;1088238;47;979;-82
2023/12/15 02:49:00;;;;;;;;;;;;;;;6.42;73.40;101203.91;1088218;47;848;-78
2023/12/15 02:50:01;;;;;;;;;;;;;;;6.42;73.43;101206.56;1088217;54;987;-80
2023/12/15 02:51:04;;;;;;;;;;;;;;;6.37;73.39;101204.19;1088354;54;1161;-81
2023/12/15 02:52:06;;;;;;;;;;;;;;;6.40;73.46;101209.28;1088562;54;907;-80
2023/12/15 02:53:10;;;;;;;;;;;;;;;6.43;73.23;101214.44;1088294;54;994;-81
2023/12/15 02:54:21;;;;;;;;;;;;;;;6.39;73.57;101207.56;1088308;47;1055;-80
2023/12/15 02:55:25;;;;;;;;;;;;;;;6.49;73.30;101219.38;1088303;54;995;-81
2023/12/15 02:56:26;;;;;;;;;;;;;;;6.43;73.47;101209.13;1088304;54;976;-81
2023/12/15 02:57:29;;;;;;;;;;;;;;;6.50;73.29;101213.13;1088270;47;1875;-81
2023/12/15 02:58:30;;;;;;;;;;;;;;;6.51;73.13;101220.16;1088454;47;1921;-80
2023/12/15 02:59:34;;;;;;;;;;;;;;;6.56;73.14;101225.19;1088361;47;1077;-80
2023/12/15 03:00:35;;;;;;;;;;;;;;;6.56;73.08;101219.88;1088309;47;1063;-81
2023/12/15 03:01:38;;;;;;;;;;;;;;;6.57;72.91;101221.59;1088342;54;1086;-79
2023/12/15 03:02:44;;;;;;;;;;;;;;;6.56;73.19;101233.16;1088423;54;1003;-81
2023/12/15 03:03:47;;;;;;;;;;;;;;;6.52;72.94;101224.53;1088319;47;1070;-80
2023/12/15 03:04:58;;;;;;;;;;;;;;;6.68;73.06;101234.25;1088287;54;1094;-80
2023/12/15 03:06:00;;;;;;;;;;;;;;;6.53;73.22;101230.69;1088450;54;971;-80
2023/12/15 03:07:03;;;;;;;;;;;;;;;6.49;73.12;101230.00;1088378;54;1350;-81
2023/12/15 03:08:04;;;;;;;;;;;;;;;6.57;72.86;101229.56;1088369;47;1098;-80
2023/12/15 03:09:08;;;;;;;;;;;;;;;6.59;72.93;101245.41;1088318;47;931;-80
2023/12/15 03:10:09;;;;;;;;;;;;;;;6.57;73.05;101232.22;1088367;54;1093;-80
2023/12/15 03:11:09;;;;;;;;;;;;;;;6.78;72.39;101245.19;1088324;47;1111;-82
2023/12/15 03:12:13;;;;;;;;;;;;;;;6.89;72.21;101240.09;1088324;47;957;-80
2023/12/15 03:13:14;;;;;;;;;;;;;;;6.86;71.95;101238.47;1088352;54;1206;-79
2023/12/15 03:14:26;;;;;;;;;;;;;;;6.80;72.04;101243.31;1088354;47;1150;-80
2023/12/15 03:15:27;;;;;;;;;;;;;;;6.83;72.00;101246.63;1088301;54;948;-80
2023/12/15 03:16:31;;;;;;;;;;;;;;;6.83;72.15;101248.44;1088446;54;1080;-80
2023/12/15 03:17:34;;;;;;;;;;;;;;;6.83;71.94;101254.63;1088245;47;1051;-79
2023/12/15 03:18:37;;;;;;;;;;;;;;;6.77;72.19;101254.97;1088318;47;1862;-81
2023/12/15 03:19:40;;;;;;;;;;;;;;;6.86;71.92;101251.75;1088306;47;1007;-80
2023/12/15 03:26:29;;;;;;;;;;;;;;;6.87;71.81;101257.94;1088216;54;1125;-79
2023/12/15 03:27:30;;;;;;;;;;;;;;;6.78;71.75;101256.66;1088454;47;1281;-81
2023/12/15 03:28:34;;;;;;;;;;;;;;;6.84;71.87;101261.66;1088365;47;1183;-81
2023/12/15 03:29:35;;;;;;;;;;;;;;;6.81;71.70;101260.94;1088338;47;1199;-80
2023/12/15 03:30:36;;;;;;;;;;;;;;;6.72;71.78;101257.88;1088331;54;1090;-81
2023/12/15 03:31:41;;;;;;;;;;;;;;;6.78;71.82;101266.47;1088428;54;1165;-81
2023/12/15 03:32:43;;;;;;;;;;;;;;;6.69;71.92;101263.41;1088359;54;988;-79
2023/12/15 03:33:50;;;;;;;;;;;;;;;6.67;71.87;101269.72;1088136;54;1125;-78
2023/12/15 03:34:54;;;;;;;;;;;;;;;6.60;71.98;101265.72;1088405;54;1094;-79
2023/12/15 03:35:58;;;;;;;;;;;;;;;6.68;71.69;101274.09;1088393;54;1267;-81
2023/12/15 03:36:58;;;;;;;;;;;;;;;6.59;72.01;101272.84;1088347;54;1298;-79
2023/12/15 03:37:59;;;;;;;;;;;;;;;6.49;72.38;101269.00;1088585;47;1050;-81
2023/12/15 03:39:11;;;;;;;;;;;;;;;6.44;72.64;101279.03;1088116;54;1859;-78
2023/12/15 03:40:12;;;;;;;;;;;;;;;6.34;72.88;101279.56;1088293;47;1102;-79
2023/12/15 03:41:16;;;;;;;;;;;;;;;6.48;72.04;101276.09;1088387;54;1144;-79
2023/12/15 03:42:17;;;;;;;;;;;;;;;6.43;72.38;101282.63;1088282;54;1180;-81
2023/12/15 03:43:20;;;;;;;;;;;;;;;6.46;72.27;101278.03;1088406;54;1112;-81
2023/12/15 03:44:22;;;;;;;;;;;;;;;6.53;72.32;101283.81;1088242;54;1043;-79
2023/12/15 03:45:26;;;;;;;;;;;;;;;6.53;72.37;101283.81;1088199;47;1003;-79
2023/12/15 03:46:26;;;;;;;;;;;;;;;6.42;72.54;101288.91;1088252;54;955;-80
2023/12/15 03:47:30;;;;;;;;;;;;;;;6.39;72.35;101289.91;1088119;54;1464;-79
2023/12/15 03:48:31;;;;;;;;;;;;;;;6.44;72.46;101295.84;1088043;47;1070;-79
2023/12/15 03:49:34;;;;;;;;;;;;;;;6.49;72.05;101290.25;1088428;54;1544;-79
2023/12/15 03:50:39;;;;;;;;;;;;;;;6.50;72.19;101291.97;1088540;54;1134;-79
2023/12/15 03:51:44;;;;;;;;;;;;;;;6.54;72.16;101290.84;1088489;54;1076;-78
2023/12/15 03:52:51;;;;;;;;;;;;;;;6.56;71.86;101291.63;1088420;47;1172;-78
2023/12/15 03:53:55;;;;;;;;;;;;;;;6.62;71.79;101293.91;1088556;54;1011;-80
2023/12/15 03:55:10;;;;;;;;;;;;;;;6.59;72.06;101288.78;1088257;47;1127;-82
2023/12/15 03:56:22;;;;;;;;;;;;;;;6.63;71.71;101289.47;1088285;54;1492;-79
2023/12/15 03:57:23;;;;;;;;;;;;;;;6.50;71.99;101292.81;1088420;54;1355;-81
2023/12/15 03:58:24;;;;;;;;;;;;;;;6.62;71.94;101288.59;1088389;54;1130;-80
2023/12/15 03:59:30;;;;;;;;;;;;;;;6.57;72.09;101290.69;1088431;54;1848;-78
2023/12/15 04:00:35;;;;;;;;;;;;;;;6.53;72.20;101299.75;1088383;46;1050;-79
2023/12/15 04:01:39;;;;;;;;;;;;;;;6.55;71.74;101297.88;1088444;46;945;-79
2023/12/15 04:02:39;;;;;;;;;;;;;;;6.63;71.63;101292.97;1088500;54;1194;-81
2023/12/15 04:03:43;;;;;;;;;;;;;;;6.53;71.81;101294.44;1088307;54;1153;-79
2023/12/15 04:04:44;;;;;;;;;;;;;;;6.68;71.65;101298.00;1088363;46;1083;-79
2023/12/15 04:05:52;;;;;;;;;;;;;;;6.74;71.46;101304.78;1088373;46;1027;-80
2023/12/15 04:06:53;;;;;;;;;;;;;;;6.82;71.31;101305.19;1088456;54;1372;-77
2023/12/15 04:07:57;;;;;;;;;;;;;;;6.90;70.95;101294.97;1088379;46;1160;-80
2023/12/15 04:09:04;;;;;;;;;;;;;;;7.01;70.52;101297.00;1088457;54;1185;-80
2023/12/15 04:10:11;;;;;;;;;;;;;;;6.99;70.63;101302.38;1088235;46;1129;-80
2023/12/15 04:11:15;;;;;;;;;;;;;;;7.02;70.39;101309.34;1088402;54;1356;-79
2023/12/15 04:12:16;;;;;;;;;;;;;;;7.03;70.35;101301.28;1088580;46;967;-81
2023/12/15 04:13:20;;;;;;;;;;;;;;;7.06;70.39;101307.38;1088510;54;1099;-79
2023/12/15 04:14:25;;;;;;;;;;;;;;;7.02;70.46;101312.84;1088492;46;1071;-81
2023/12/15 04:15:28;;;;;;;;;;;;;;;7.09;70.18;101307.16;1088498;54;1046;-82
2023/12/15 04:16:32;;;;;;;;;;;;;;;7.10;70.43;101308.88;1088592;54;1367;-78
2023/12/15 04:17:33;;;;;;;;;;;;;;;7.06;70.69;101318.00;1088442;54;1205;-81
2023/12/15 04:18:36;;;;;;;;;;;;;;;7.03;70.22;101314.56;1088464;54;1094;-80
2023/12/15 04:19:37;;;;;;;;;;;;;;;6.95;70.44;101311.50;1088167;47;1851;-80
2023/12/15 04:20:40;;;;;;;;;;;;;;;6.95;70.33;101306.19;1088224;54;1488;-78
2023/12/15 04:21:44;;;;;;;;;;;;;;;6.92;70.36;101316.16;1088376;54;1063;-79
2023/12/15 04:22:47;;;;;;;;;;;;;;;6.94;70.49;101320.44;1088330;54;1098;-78
2023/12/15 04:23:49;;;;;;;;;;;;;;;6.98;70.21;101313.13;1088434;54;1058;-80
2023/12/15 04:24:53;;;;;;;;;;;;;;;6.99;70.53;101318.34;1088416;54;1304;-80
2023/12/15 04:25:57;;;;;;;;;;;;;;;6.96;70.49;101318.53;1088517;47;1039;-80
2023/12/15 04:27:02;;;;;;;;;;;;;;;6.89;70.46;101327.84;1088174;47;1305;-80
2023/12/15 04:28:03;;;;;;;;;;;;;;;6.92;70.51;101324.97;1088588;54;1201;-82
2023/12/15 04:29:12;;;;;;;;;;;;;;;6.94;70.31;101314.28;1088714;46;929;-81
2023/12/15 04:30:26;;;;;;;;;;;;;;;6.93;70.21;101324.03;1088760;54;999;-81
2023/12/15 04:31:29;;;;;;;;;;;;;;;6.93;70.37;101321.38;1088513;54;1153;-80
2023/12/15 04:32:30;;;;;;;;;;;;;;;6.91;70.10;101325.91;1088553;47;1016;-79
2023/12/15 04:33:34;;;;;;;;;;;;;;;6.87;70.46;101325.25;1088625;54;1509;-81
2023/12/15 04:34:37;;;;;;;;;;;;;;;6.93;70.10;101323.19;1088248;54;1102;-82
2023/12/15 04:35:41;;;;;;;;;;;;;;;6.93;70.29;101324.03;1088483;54;1110;-79
2023/12/15 04:36:47;;;;;;;;;;;;;;;7.08;69.99;101326.75;1088296;54;1190;-81
2023/12/15 04:37:53;;;;;;;;;;;;;;;7.01;69.98;101326.25;1088506;54;919;-79
2023/12/15 04:39:05;;;;;;;;;;;;;;;7.04;69.77;101320.72;1088390;46;1098;-78
2023/12/15 04:40:14;;;;;;;;;;;;;;;7.03;69.58;101327.88;1088227;54;1177;-81
2023/12/15 04:41:21;;;;;;;;;;;;;;;6.95;69.91;101332.78;1088316;47;927;-79
2023/12/15 04:42:22;;;;;;;;;;;;;;;6.91;69.75;101331.22;1088531;54;1087;-81
2023/12/15 04:43:25;;;;;;;;;;;;;;;6.86;69.60;101335.97;1088564;54;1197;-80
2023/12/15 04:44:29;;;;;;;;;;;;;;;6.79;69.89;101331.97;1088341;47;991;-79
2023/12/15 04:45:33;;;;;;;;;;;;;;;6.76;69.86;101337.44;1088466;54;1167;-81
2023/12/15 04:46:34;;;;;;;;;;;;;;;6.79;69.89;101342.59;1088515;54;1355;-79
2023/12/15 04:47:38;;;;;;;;;;;;;;;6.74;70.04;101339.34;1088405;47;1618;-81
2023/12/15 04:48:38;;;;;;;;;;;;;;;6.76;70.06;101337.44;1088383;46;1061;-81
2023/12/15 04:49:42;;;;;;;;;;;;;;;6.83;69.58;101345.00;1088306;47;1067;-80
2023/12/15 04:50:46;;;;;;;;;;;;;;;6.83;69.64;101350.31;1088245;54;1158;-79
2023/12/15 04:51:55;;;;;;;;;;;;;;;6.88;69.66;101360.66;1088373;54;1086;-79
2023/12/15 04:52:56;;;;;;;;;;;;;;;6.89;69.55;101349.09;1088350;54;1034;-79
2023/12/15 04:53:59;;;;;;;;;;;;;;;6.91;69.47;101357.81;1088429;54;1066;-78
2023/12/15 04:55:10;;;;;;;;;;;;;;;6.90;69.59;101352.59;1088349;54;1113;-82
2023/12/15 04:56:16;;;;;;;;;;;;;;;6.93;69.53;101355.94;1088589;54;1073;-79
2023/12/15 04:57:17;;;;;;;;;;;;;;;6.92;69.31;101359.53;1088364;46;1326;-80
2023/12/15 04:58:35;;;;;;;;;;;;;;;6.96;69.33;101353.09;1088277;54;1102;-80
2023/12/15 04:59:40;;;;;;;;;;;;;;;6.94;69.54;101359.47;1088325;54;1849;-80
2023/12/15 05:00:43;;;;;;;;;;;;;;;7.03;69.09;101357.13;1088150;54;1090;-81
2023/12/15 05:01:44;;;;;;;;;;;;;;;7.04;69.42;101355.28;1088290;54;1127;-78
2023/12/15 05:02:50;;;;;;;;;;;;;;;7.00;69.21;101357.28;1088273;54;1074;-81
2023/12/15 05:03:51;;;;;;;;;;;;;;;6.98;69.31;101358.31;1088228;47;984;-81
2023/12/15 05:05:07;;;;;;;;;;;;;;;6.96;69.26;101353.09;1088250;47;1143;-79
2023/12/15 05:06:25;;;;;;;;;;;;;;;6.95;69.40;101358.50;1088384;54;1122;-80
2023/12/15 05:07:34;;;;;;;;;;;;;;;6.91;69.07;101349.84;1088309;54;1427;-80
2023/12/15 05:08:34;;;;;;;;;;;;;;;6.87;69.25;101359.78;1088415;54;1022;-80
2023/12/15 05:09:38;;;;;;;;;;;;;;;6.89;69.44;101359.72;1088198;46;1034;-80
2023/12/15 05:10:39;;;;;;;;;;;;;;;6.90;69.62;101364.06;1088224;47;1018;-80
2023/12/15 05:11:42;;;;;;;;;;;;;;;6.91;69.33;101357.81;1088446;54;1099;-78
2023/12/15 05:12:45;;;;;;;;;;;;;;;6.86;69.55;101365.22;1088096;47;1130;-80
2023/12/15 05:13:46;;;;;;;;;;;;;;;6.91;69.71;101368.44;1088292;54;1169;-81
2023/12/15 05:16:11;;;;;;;;;;;;;;;6.82;69.90;101366.31;1088289;54;940;-79
2023/12/15 05:17:22;;;;;;;;;;;;;;;6.89;69.61;101372.16;1088134;47;1275;-81
2023/12/15 05:18:25;;;;;;;;;;;;;;;6.90;69.49;101368.56;1088212;47;1007;-80
2023/12/15 05:19:29;;;;;;;;;;;;;;;6.86;69.79;101368.72;1088027;47;1845;-82
2023/12/15 05:20:36;;;;;;;;;;;;;;;6.84;69.67;101375.06;1088306;46;1056;-81
2023/12/15 05:21:37;;;;;;;;;;;;;;;6.93;69.96;101376.34;1088120;54;1072;-79
2023/12/15 05:22:43;;;;;;;;;;;;;;;6.87;70.04;101374.91;1088148;47;1540;-80
2023/12/15 05:23:44;;;;;;;;;;;;;;;6.92;69.96;101382.63;1088137;47;1493;-80
2023/12/15 05:24:45;;;;;;;;;;;;;;;6.88;69.88;101387.25;1088210;54;1136;-80
2023/12/15 05:25:49;;;;;;;;;;;;;;;6.90;69.73;101388.00;1088146;54;1095;-81
2023/12/15 05:26:50;;;;;;;;;;;;;;;6.83;69.94;101386.66;1088359;54;1338;-81
2023/12/15 05:27:53;;;;;;;;;;;;;;;6.85;70.07;101395.41;1087493;54;1187;-79
2023/12/15 05:28:58;;;;;;;;;;;;;;;6.80;70.06;101398.31;1088392;47;1083;-80
2023/12/15 05:30:02;;;;;;;;;;;;;;;6.78;70.45;101394.88;1088448;54;1492;-80
2023/12/15 05:31:06;;;;;;;;;;;;;;;6.75;70.74;101402.19;1088449;54;1078;-80
2023/12/15 05:32:09;;;;;;;;;;;;;;;6.78;70.69;101410.00;1088314;54;1087;-80
2023/12/15 05:33:10;;;;;;;;;;;;;;;6.77;70.56;101402.97;1088274;54;1039;-79
2023/12/15 05:34:20;;;;;;;;;;;;;;;6.79;70.70;101407.22;1088321;54;1093;-78
2023/12/15 05:35:21;;;;;;;;;;;;;;;6.77;70.78;101408.28;1088086;54;1674;-78
2023/12/15 05:36:22;;;;;;;;;;;;;;;6.80;70.65;101414.28;1088263;54;1248;-77
2023/12/15 05:37:26;;;;;;;;;;;;;;;6.82;70.63;101412.38;1088081;54;1346;-79
2023/12/15 05:38:29;;;;;;;;;;;;;;;6.76;70.71;101417.19;1088162;46;995;-78
2023/12/15 05:39:30;;;;;;;;;;;;;;;6.69;71.28;101422.84;1087893;47;1853;-79
2023/12/15 05:40:45;;;;;;;;;;;;;;;6.71;71.09;101420.94;1088183;47;1110;-78
2023/12/15 05:41:46;;;;;;;;;;;;;;;6.75;70.91;101431.41;1088351;54;1169;-80
2023/12/15 05:42:49;;;;;;;;;;;;;;;6.77;71.13;101421.56;1088136;47;1137;-80
2023/12/15 05:43:53;;;;;;;;;;;;;;;6.69;71.24;101420.19;1088200;47;1042;-79
2023/12/15 05:44:57;;;;;;;;;;;;;;;6.67;71.14;101431.84;1088316;47;1083;-79
2023/12/15 05:45:58;;;;;;;;;;;;;;;6.58;71.33;101427.91;1088188;47;992;-80
2023/12/15 05:47:02;;;;;;;;;;;;;;;6.62;71.00;101424.13;1088278;47;1298;-79
2023/12/15 05:48:03;;;;;;;;;;;;;;;6.60;71.04;101428.69;1088330;46;1182;-79
2023/12/15 05:49:06;;;;;;;;;;;;;;;6.66;71.09;101438.13;1088259;54;1023;-79
2023/12/15 05:50:07;;;;;;;;;;;;;;;6.65;70.94;101437.25;1088216;54;891;-78
2023/12/15 05:51:21;;;;;;;;;;;;;;;6.65;71.10;101447.88;1088388;47;1019;-78
2023/12/15 05:52:22;;;;;;;;;;;;;;;6.61;71.32;101450.78;1088399;54;1090;-80
2023/12/15 05:53:25;;;;;;;;;;;;;;;6.65;71.02;101442.56;1088195;54;974;-79
2023/12/15 05:54:29;;;;;;;;;;;;;;;6.69;70.91;101443.25;1088199;54;1108;-78